»·PEaware :: N734DB KASE-KSLC

N734DB :: KASE-KSLC

FLIGHT INFORMATION

Flight Status: Arrived
Operator: Privately registered:
United States
More flights under this callsign
Pilot: Paul D. (10090)
Aircraft: CESSNA 550 CITATION 2/S2/BRAVO
(C550)
More flights by this aircraft type
Origin: KASE Aspen-Pitkin Co/Sardy
United States
Destination: KSLC Salt Lake City Intl
United States
More flights between these airports :: More routes between these airports
Route: +LINDZ8 EKR LEEHY5
File this flight plan on PilotEdge
Remarks:
Altitude:
(Current/Filed)
26,000ft
Speed:
(Current/Filed)
400kts
Departed: 23-Oct-17 03:30 PM
Arrived: 23-Oct-17 04:14 PM
Distance/Time
Traveled:
252nm/0:43
Distance/Time
To Go:
Arrived

Flight Plot

Page will automatically refresh every two minutes.

Flight plan parsing failed; only flown route is shown


Map Options




Map Legend


Flown Route
Filed Route
Departure Airport
Arrival Airport
Navaid (VOR, NDB)
Fix

Horizontal Profiles

Position Reports

Time Latitude Longitude Heading Altitude Ground
Speed
23-Oct-17 15:22 39.219176 -106.865507 256 7825ft 0kts
23-Oct-17 15:23 39.219175 -106.865511 256 7825ft 0kts
23-Oct-17 15:24 39.219175 -106.865515 256 7825ft 0kts
23-Oct-17 15:25 39.219174 -106.865519 256 7825ft 0kts
23-Oct-17 15:26 39.219173 -106.865523 256 7825ft 0kts
23-Oct-17 15:27 39.219173 -106.865527 256 7825ft 0kts
23-Oct-17 15:28 39.219172 -106.865531 256 7825ft 0kts
23-Oct-17 15:29 39.219171 -106.865535 256 7825ft 0kts
23-Oct-17 15:30 39.219171 -106.865539 256 7825ft 0kts
23-Oct-17 15:31 39.219170 -106.865543 256 7825ft 0kts
23-Oct-17 15:32 39.218750 -106.866018 165 7825ft 16kts
23-Oct-17 15:33 39.214979 -106.864343 214 7825ft 1kts
23-Oct-17 15:34 39.214759 -106.864814 315 7825ft 10kts
23-Oct-17 15:35 39.232472 -106.873659 338 8057ft 154kts
23-Oct-17 15:36 39.273543 -106.925981 292 10014ft 291kts
23-Oct-17 15:37 39.307921 -107.046064 305 12776ft 372kts
23-Oct-17 15:38 39.377091 -107.151940 295 15808ft 402kts
23-Oct-17 15:39 39.364805 -107.295150 253 18902ft 412kts
23-Oct-17 15:40 39.332358 -107.442177 255 21921ft 438kts
23-Oct-17 15:41 39.310391 -107.596334 283 24925ft 438kts
23-Oct-17 15:42 39.398120 -107.690393 357 25677ft 447kts
23-Oct-17 15:43 39.522494 -107.717659 346 25653ft 450kts
23-Oct-17 15:44 39.637789 -107.765976 330 25642ft 432kts
23-Oct-17 15:45 39.707512 -107.897305 300 25645ft 455kts
23-Oct-17 15:46 39.767334 -108.042911 300 25640ft 459kts
23-Oct-17 15:47 39.827461 -108.189427 300 25640ft 460kts
23-Oct-17 15:48 39.887678 -108.336764 300 25640ft 459kts
23-Oct-17 15:49 39.947347 -108.483653 299 25640ft 459kts
23-Oct-17 15:50 40.007121 -108.631013 300 25640ft 461kts
23-Oct-17 15:51 40.066932 -108.779259 299 25640ft 463kts
23-Oct-17 15:52 40.110559 -108.936906 274 25652ft 472kts
23-Oct-17 15:53 40.116790 -109.109304 273 25640ft 475kts
23-Oct-17 15:54 40.122968 -109.281563 273 25640ft 475kts
23-Oct-17 15:55 40.127846 -109.424926 273 25640ft 474kts
23-Oct-17 15:56 40.134492 -109.626337 273 25640ft 475kts
23-Oct-17 15:57 40.138972 -109.769982 273 25640ft 475kts
23-Oct-17 15:58 40.144947 -109.970326 273 25639ft 470kts
23-Oct-17 15:59 40.148961 -110.112834 273 25639ft 472kts
23-Oct-17 16:00 40.148433 -110.284618 270 25640ft 474kts
23-Oct-17 16:01 40.146580 -110.457743 270 25640ft 476kts
23-Oct-17 16:02 40.144433 -110.658979 270 25640ft 475kts
23-Oct-17 16:03 40.143454 -110.801558 272 25047ft 453kts
23-Oct-17 16:04 40.143212 -110.967118 266 23064ft 464kts
23-Oct-17 16:05 40.137853 -111.132625 269 20976ft 452kts
23-Oct-17 16:06 40.135077 -111.294828 270 18873ft 439kts
23-Oct-17 16:07 40.132338 -111.447123 270 16768ft 401kts
23-Oct-17 16:08 40.146201 -111.590300 297 15175ft 403kts
23-Oct-17 16:09 40.202813 -111.714237 317 14584ft 397kts
23-Oct-17 16:10 40.276444 -111.812427 322 13277ft 357kts
23-Oct-17 16:11 40.356247 -111.873650 333 11757ft 291kts
23-Oct-17 16:12 40.421718 -111.920017 344 10181ft 241kts
23-Oct-17 16:13 40.481451 -111.929015 356 9341ft 210kts
23-Oct-17 16:14 40.541307 -111.941027 352 8111ft 198kts
23-Oct-17 16:15 40.591712 -111.953520 3 7890ft 172kts
23-Oct-17 16:16 40.639574 -111.943307 1 7008ft 210kts
23-Oct-17 16:17 40.696065 -111.954266 1 5611ft 202kts
23-Oct-17 16:18 40.754987 -111.960015 357 4579ft 203kts
23-Oct-17 16:19 40.786416 -111.961989 9 4232ft 29kts
23-Oct-17 16:20 40.788769 -111.960463 31 4232ft 17kts

Navigation Log

Ident Type
Flight plan parsing failed, navigation log unavailable